Time;durP1;ratioP1;P1;durP2;ratioP2;P2;SDS_P1;SDS_P2;PMS_P1;PMS_P2;Temp;Humidity;BMP_temperature;BMP_pressure;BME280_temperature;BME280_humidity;BME280_pressure;Samples;Min_cycle;Max_cycle;Signal;HPM_P1;HPM_P2
2022/11/27 00:01:36;;;;;;;;;8.50;8.50;;;;;;;;4952014;29;11521;-82
2022/11/27 00:04:09;;;;;;;;;6.75;5.00;;;;;;;;5086475;23;11614;-81
2022/11/27 00:06:41;;;;;;;;;6.00;5.00;;;;;;;;4949979;29;11528;-81
2022/11/27 00:09:16;;;;;;;;;12.00;7.25;;;;;;;;4953585;29;11558;-82
2022/11/27 00:11:49;;;;;;;;;8.50;8.50;;;;;;;;4954249;28;11553;-81
2022/11/27 00:14:18;;;;;;;;;16.25;12.50;;;;;;;;4955188;29;11557;-81
2022/11/27 00:16:46;;;;;;;;;11.50;9.75;;;;;;;;4956125;29;11549;-82
2022/11/27 00:19:16;;;;;;;;;12.25;9.50;;;;;;;;4953971;29;11625;-82
2022/11/27 00:21:44;;;;;;;;;18.25;11.00;;;;;;;;4955792;29;11565;-82
2022/11/27 00:24:17;;;;;;;;;14.00;12.00;;;;;;;;4956104;29;11602;-80
2022/11/27 00:26:50;;;;;;;;;14.50;13.75;;;;;;;;4957439;28;11545;-81
2022/11/27 00:29:18;;;;;;;;;11.75;9.00;;;;;;;;4956131;29;11580;-82
2022/11/27 00:31:50;;;;;;;;;14.00;12.00;;;;;;;;4955661;29;11527;-79
2022/11/27 00:34:21;;;;;;;;;8.00;8.00;;;;;;;;4957439;29;11574;-80
2022/11/27 00:36:49;;;;;;;;;12.25;10.00;;;;;;;;4948869;29;11571;-81
2022/11/27 00:39:20;;;;;;;;;12.50;8.25;;;;;;;;4947731;29;11502;-81
2022/11/27 00:41:48;;;;;;;;;8.75;7.25;;;;;;;;4948926;29;11523;-81
2022/11/27 00:44:15;;;;;;;;;8.00;7.75;;;;;;;;4942498;29;11603;-81
2022/11/27 00:46:44;;;;;;;;;10.00;8.00;;;;;;;;4940751;29;11605;-80
2022/11/27 00:49:15;;;;;;;;;10.75;10.50;;;;;;;;4948077;29;11553;-82
2022/11/27 00:51:43;;;;;;;;;8.75;8.75;;;;;;;;4948837;29;11529;-82
2022/11/27 00:54:11;;;;;;;;;9.00;7.00;;;;;;;;4949408;29;11558;-82
2022/11/27 00:56:41;;;;;;;;;10.75;8.50;;;;;;;;4948211;29;11510;-81
2022/11/27 00:59:19;;;;;;;;;13.25;12.75;;;;;;;;4955398;29;11569;-82
2022/11/27 01:01:47;;;;;;;;;10.50;10.50;;;;;;;;4950489;29;11567;-81
2022/11/27 01:04:17;;;;;;;;;11.25;9.75;;;;;;;;4952788;29;11603;-81
2022/11/27 01:06:46;;;;;;;;;9.00;9.00;;;;;;;;4957533;28;11446;-82
2022/11/27 01:09:17;;;;;;;;;8.00;8.00;;;;;;;;4958416;28;11543;-80
2022/11/27 01:11:47;;;;;;;;;12.25;7.75;;;;;;;;4954311;28;11499;-82
2022/11/27 01:14:19;;;;;;;;;8.00;5.50;;;;;;;;4950726;28;11548;-83
2022/11/27 01:16:48;;;;;;;;;8.00;7.75;;;;;;;;4948702;28;12376;-82
2022/11/27 01:19:16;;;;;;;;;7.25;7.25;;;;;;;;4952448;29;11534;-82
2022/11/27 01:21:47;;;;;;;;;4.00;2.75;;;;;;;;4952146;29;11518;-81
2022/11/27 01:24:16;;;;;;;;;12.25;12.25;;;;;;;;4947919;29;11510;-82
2022/11/27 01:26:55;;;;;;;;;16.00;9.75;;;;;;;;4957092;28;11595;-81
2022/11/27 01:29:23;;;;;;;;;9.00;7.75;;;;;;;;5420512;23;11593;-81
2022/11/27 01:31:50;;;;;;;;;8.00;7.00;;;;;;;;4943669;29;11619;-81
2022/11/27 01:34:19;;;;;;;;;7.50;7.50;;;;;;;;4957769;29;11542;-82
2022/11/27 01:36:47;;;;;;;;;10.00;8.00;;;;;;;;5106869;23;11537;-83
2022/11/27 01:39:17;;;;;;;;;11.50;9.00;;;;;;;;4956913;29;11501;-80
2022/11/27 01:41:50;;;;;;;;;12.75;9.50;;;;;;;;4956022;28;11542;-82
2022/11/27 01:44:56;;;;;;;;;10.00;9.75;;;;;;;;4956121;28;11527;-80
2022/11/27 01:47:37;;;;;;;;;6.00;6.00;;;;;;;;4951882;29;11538;-81
2022/11/27 01:50:19;;;;;;;;;15.25;9.00;;;;;;;;4956378;28;11570;-81
2022/11/27 01:52:50;;;;;;;;;7.75;5.50;;;;;;;;4957012;28;11530;-80
2022/11/27 01:55:23;;;;;;;;;10.00;8.25;;;;;;;;4950531;28;11515;-80
2022/11/27 01:57:58;;;;;;;;;7.00;6.25;;;;;;;;4956405;28;11507;-82
2022/11/27 02:00:29;;;;;;;;;11.75;7.25;;;;;;;;4954256;29;11535;-81
2022/11/27 02:02:59;;;;;;;;;10.00;7.00;;;;;;;;4954968;29;11521;-81
2022/11/27 02:05:28;;;;;;;;;10.75;8.75;;;;;;;;4953682;28;11552;-82
2022/11/27 02:08:01;;;;;;;;;7.25;6.00;;;;;;;;4951522;29;11536;-81
2022/11/27 02:10:36;;;;;;;;;8.00;7.00;;;;;;;;4955370;29;11502;-81
2022/11/27 02:13:17;;;;;;;;;13.00;8.50;;;;;;;;4950387;29;11533;-81
2022/11/27 02:15:51;;;;;;;;;8.25;7.50;;;;;;;;4953825;29;11657;-81
2022/11/27 02:18:33;;;;;;;;;7.25;7.25;;;;;;;;4950897;29;11641;-81
2022/11/27 02:21:10;;;;;;;;;7.50;7.50;;;;;;;;4953497;28;11571;-80
2022/11/27 02:24:05;;;;;;;;;7.50;6.00;;;;;;;;4954806;28;11524;-82
2022/11/27 02:26:58;;;;;;;;;7.00;7.00;;;;;;;;4954237;29;11519;-82
2022/11/27 02:29:29;;;;;;;;;7.00;7.00;;;;;;;;4955584;28;11578;-81
2022/11/27 02:32:06;;;;;;;;;7.25;6.75;;;;;;;;4952697;29;12344;-82
2022/11/27 02:34:43;;;;;;;;;9.50;8.00;;;;;;;;4948137;29;11515;-82
2022/11/27 02:37:16;;;;;;;;;6.00;6.00;;;;;;;;4948746;29;11503;-83
2022/11/27 02:39:59;;;;;;;;;8.00;8.00;;;;;;;;4935134;29;11703;-82
2022/11/27 02:42:28;;;;;;;;;9.25;6.25;;;;;;;;4934912;29;11512;-82
2022/11/27 02:45:00;;;;;;;;;7.50;7.50;;;;;;;;4934313;29;11525;-80
2022/11/27 02:47:29;;;;;;;;;10.50;9.00;;;;;;;;4942747;29;11529;-82
2022/11/27 02:49:57;;;;;;;;;6.00;5.50;;;;;;;;4957695;29;11653;-80
2022/11/27 02:52:27;;;;;;;;;9.75;8.50;;;;;;;;4954742;29;11593;-81
2022/11/27 02:54:58;;;;;;;;;6.50;4.00;;;;;;;;4955444;29;11609;-80
2022/11/27 02:57:26;;;;;;;;;7.00;7.00;;;;;;;;4951759;29;12243;-82
2022/11/27 02:59:57;;;;;;;;;9.50;6.75;;;;;;;;4939246;29;11588;-82
2022/11/27 03:02:28;;;;;;;;;7.00;7.00;;;;;;;;4937470;29;11545;-80
2022/11/27 03:04:59;;;;;;;;;9.75;7.00;;;;;;;;4936751;29;11578;-80
2022/11/27 03:07:42;;;;;;;;;9.00;6.00;;;;;;;;4948119;29;11492;-81
2022/11/27 03:10:17;;;;;;;;;9.00;7.25;;;;;;;;4953088;29;11596;-82
2022/11/27 03:12:45;;;;;;;;;3.00;1.25;;;;;;;;4932573;29;11551;-82
2022/11/27 03:15:14;;;;;;;;;8.75;8.75;;;;;;;;4938676;29;11256;-82
2022/11/27 03:17:51;;;;;;;;;7.00;6.50;;;;;;;;4939774;29;11491;-82
2022/11/27 03:20:22;;;;;;;;;6.00;6.00;;;;;;;;4934683;29;11530;-83
2022/11/27 03:22:50;;;;;;;;;6.00;6.00;;;;;;;;4935830;29;11519;-82
2022/11/27 03:25:17;;;;;;;;;8.00;6.00;;;;;;;;4947680;29;11622;-82
2022/11/27 03:27:49;;;;;;;;;8.00;6.00;;;;;;;;4946050;29;11537;-82
2022/11/27 03:30:18;;;;;;;;;10.75;7.50;;;;;;;;4939965;29;11512;-81
2022/11/27 03:32:47;;;;;;;;;6.00;6.00;;;;;;;;4934522;29;11622;-82
2022/11/27 03:35:18;;;;;;;;;2.25;2.25;;;;;;;;4933711;29;11593;-84
2022/11/27 03:37:45;;;;;;;;;7.00;7.00;;;;;;;;4931715;29;11552;-83
2022/11/27 03:40:16;;;;;;;;;7.00;6.00;;;;;;;;4936192;29;12273;-82
2022/11/27 03:42:52;;;;;;;;;13.25;7.00;;;;;;;;4938891;29;12316;-83
2022/11/27 03:45:30;;;;;;;;;6.00;6.00;;;;;;;;4938297;29;11254;-82
2022/11/27 03:48:07;;;;;;;;;4.00;4.00;;;;;;;;4934209;28;11188;-83
2022/11/27 03:50:45;;;;;;;;;4.00;4.00;;;;;;;;4927936;29;11603;-82
2022/11/27 03:53:22;;;;;;;;;4.00;4.00;;;;;;;;4930463;29;11581;-83
2022/11/27 03:55:54;;;;;;;;;7.75;6.25;;;;;;;;4933514;29;11616;-82
2022/11/27 03:58:25;;;;;;;;;8.50;6.00;;;;;;;;4943631;29;11546;-83
2022/11/27 04:00:56;;;;;;;;;5.25;4.00;;;;;;;;4937982;29;11532;-82
2022/11/27 04:03:27;;;;;;;;;4.00;4.00;;;;;;;;4937655;29;11610;-83
2022/11/27 04:05:55;;;;;;;;;6.25;3.75;;;;;;;;4938978;29;11505;-82
2022/11/27 04:08:25;;;;;;;;;8.25;5.00;;;;;;;;4938910;29;11390;-82
2022/11/27 04:10:53;;;;;;;;;8.25;6.00;;;;;;;;4938530;29;11530;-82
2022/11/27 04:13:23;;;;;;;;;8.50;6.00;;;;;;;;4942297;29;11280;-82
2022/11/27 04:15:51;;;;;;;;;6.75;6.00;;;;;;;;4942334;29;11334;-82
2022/11/27 04:18:20;;;;;;;;;8.00;6.25;;;;;;;;4934223;28;11130;-82
2022/11/27 04:20:48;;;;;;;;;7.50;6.50;;;;;;;;4941073;29;11313;-83
2022/11/27 04:23:15;;;;;;;;;3.25;3.25;;;;;;;;4934191;29;11237;-83
2022/11/27 04:25:46;;;;;;;;;11.00;7.25;;;;;;;;4936488;29;11259;-81
2022/11/27 04:28:17;;;;;;;;;3.75;3.75;;;;;;;;4948324;29;11184;-82
2022/11/27 04:30:52;;;;;;;;;8.25;7.25;;;;;;;;4954094;29;11279;-83
2022/11/27 04:33:22;;;;;;;;;4.50;4.50;;;;;;;;4942716;29;11301;-82
2022/11/27 04:35:51;;;;;;;;;6.75;6.75;;;;;;;;4955386;29;11203;-81
2022/11/27 04:38:20;;;;;;;;;6.50;6.00;;;;;;;;4953941;28;11264;-82
2022/11/27 04:40:48;;;;;;;;;5.50;4.00;;;;;;;;4936504;29;11522;-83
2022/11/27 04:43:15;;;;;;;;;4.00;4.00;;;;;;;;4941942;29;11076;-82
2022/11/27 04:45:45;;;;;;;;;7.50;4.00;;;;;;;;4945418;29;11949;-82
2022/11/27 04:48:16;;;;;;;;;3.25;3.25;;;;;;;;4942850;29;11203;-81
2022/11/27 04:50:46;;;;;;;;;6.50;4.50;;;;;;;;4949641;29;11233;-82
2022/11/27 04:53:15;;;;;;;;;4.00;4.00;;;;;;;;4950113;29;11183;-82
2022/11/27 04:55:46;;;;;;;;;8.50;7.00;;;;;;;;4948334;28;11525;-82
2022/11/27 04:58:15;;;;;;;;;6.25;4.00;;;;;;;;4955174;28;11524;-82
2022/11/27 05:00:46;;;;;;;;;9.00;7.00;;;;;;;;4949509;29;11339;-81
2022/11/27 05:03:16;;;;;;;;;4.75;4.00;;;;;;;;4953580;28;11532;-80
2022/11/27 05:05:47;;;;;;;;;6.75;6.75;;;;;;;;4955512;28;11524;-82
2022/11/27 05:11:00;;;;;;;;;8.75;7.00;;;;;;;;5074591;23;11525;-83
2022/11/27 05:13:33;;;;;;;;;6.25;6.25;;;;;;;;4956041;28;11292;-81
2022/11/27 05:16:02;;;;;;;;;6.75;4.00;;;;;;;;4957746;28;11575;-82
2022/11/27 05:18:43;;;;;;;;;6.50;4.50;;;;;;;;4951749;28;11541;-84
2022/11/27 05:21:13;;;;;;;;;6.50;4.00;;;;;;;;4956542;28;11523;-82
2022/11/27 05:23:41;;;;;;;;;3.00;3.00;;;;;;;;4954627;29;11310;-82
2022/11/27 05:26:11;;;;;;;;;6.75;5.50;;;;;;;;4954988;29;11485;-81
2022/11/27 05:28:41;;;;;;;;;5.00;3.75;;;;;;;;4939202;29;11559;-82
2022/11/27 05:31:09;;;;;;;;;7.25;6.50;;;;;;;;4952705;29;11235;-81
2022/11/27 05:33:40;;;;;;;;;6.00;6.00;;;;;;;;4956119;29;11371;-82
2022/11/27 05:36:09;;;;;;;;;7.00;7.00;;;;;;;;4954782;28;11589;-82
2022/11/27 05:38:41;;;;;;;;;6.00;6.00;;;;;;;;4959988;28;11211;-84
2022/11/27 05:41:10;;;;;;;;;5.50;3.25;;;;;;;;4954928;29;11268;-83
2022/11/27 05:43:38;;;;;;;;;5.75;4.50;;;;;;;;4953606;29;11281;-82
2022/11/27 05:46:13;;;;;;;;;6.25;6.25;;;;;;;;4953098;29;11189;-81
2022/11/27 05:48:41;;;;;;;;;6.50;5.50;;;;;;;;4958290;28;11607;-83
2022/11/27 05:51:09;;;;;;;;;4.50;4.50;;;;;;;;4946672;29;11272;-83
2022/11/27 05:53:38;;;;;;;;;6.00;6.00;;;;;;;;4939543;29;11279;-82
2022/11/27 05:56:08;;;;;;;;;7.25;6.50;;;;;;;;4948401;29;11264;-84
2022/11/27 05:58:36;;;;;;;;;4.50;4.00;;;;;;;;4942677;29;11329;-84
2022/11/27 06:01:05;;;;;;;;;5.25;3.00;;;;;;;;4940872;29;11192;-84
2022/11/27 06:03:33;;;;;;;;;7.00;6.00;;;;;;;;4940844;29;11509;-83
2022/11/27 06:06:12;;;;;;;;;8.75;6.00;;;;;;;;4943374;29;11650;-83
2022/11/27 06:08:42;;;;;;;;;6.25;6.25;;;;;;;;4944070;29;11527;-84
2022/11/27 06:11:14;;;;;;;;;7.50;5.00;;;;;;;;4934372;29;11298;-83
2022/11/27 06:13:42;;;;;;;;;4.00;4.00;;;;;;;;4934491;29;11277;-83
2022/11/27 06:16:11;;;;;;;;;7.25;5.00;;;;;;;;4932414;29;11174;-83
2022/11/27 06:18:39;;;;;;;;;6.00;6.00;;;;;;;;4931798;28;11196;-83
2022/11/27 06:21:08;;;;;;;;;11.50;7.00;;;;;;;;4935431;29;11657;-82
2022/11/27 06:23:35;;;;;;;;;5.50;5.50;;;;;;;;4933012;29;11283;-82
2022/11/27 06:26:16;;;;;;;;;5.50;4.50;;;;;;;;4936719;29;11283;-81
2022/11/27 06:28:44;;;;;;;;;3.75;3.75;;;;;;;;4935493;29;11697;-80
2022/11/27 06:31:13;;;;;;;;;8.50;6.50;;;;;;;;4941169;29;11506;-82
2022/11/27 06:33:41;;;;;;;;;8.00;6.00;;;;;;;;4937381;29;11611;-83
2022/11/27 06:36:11;;;;;;;;;4.50;4.50;;;;;;;;4953264;28;11560;-82
2022/11/27 06:38:39;;;;;;;;;6.00;6.00;;;;;;;;4950990;28;11396;-84
2022/11/27 06:41:07;;;;;;;;;5.00;5.00;;;;;;;;4950973;29;11309;-82
2022/11/27 06:43:53;;;;;;;;;4.75;4.00;;;;;;;;4941208;29;11417;-82
2022/11/27 06:49:14;;;;;;;;;10.50;7.50;;;;;;;;4935021;29;11275;-82
2022/11/27 06:52:01;;;;;;;;;9.50;7.00;;;;;;;;4940610;29;11405;-83
2022/11/27 06:54:33;;;;;;;;;8.25;8.25;;;;;;;;4943797;29;11563;-82
2022/11/27 06:57:04;;;;;;;;;6.50;4.00;;;;;;;;4944603;29;11515;-82
2022/11/27 06:59:34;;;;;;;;;7.00;7.00;;;;;;;;4944989;29;11260;-82
2022/11/27 07:02:13;;;;;;;;;7.50;6.50;;;;;;;;4928755;29;11529;-83
2022/11/27 07:04:46;;;;;;;;;7.75;6.25;;;;;;;;4940072;29;11522;-81
2022/11/27 07:07:16;;;;;;;;;7.00;7.00;;;;;;;;4940286;29;11320;-81
2022/11/27 07:09:43;;;;;;;;;6.75;6.75;;;;;;;;4941438;29;11598;-83
2022/11/27 07:12:11;;;;;;;;;6.00;6.00;;;;;;;;4936916;29;11537;-83
2022/11/27 07:14:40;;;;;;;;;4.00;4.00;;;;;;;;4929417;29;11527;-81
2022/11/27 07:17:09;;;;;;;;;6.00;6.00;;;;;;;;4929933;29;11206;-82
2022/11/27 07:19:41;;;;;;;;;7.75;7.75;;;;;;;;4937727;29;11268;-82
2022/11/27 07:22:09;;;;;;;;;9.25;6.00;;;;;;;;4947594;29;11361;-82
2022/11/27 07:24:37;;;;;;;;;8.25;8.25;;;;;;;;4954635;29;11263;-82
2022/11/27 07:27:05;;;;;;;;;7.00;7.00;;;;;;;;4952511;28;11615;-83
2022/11/27 07:29:34;;;;;;;;;12.00;7.00;;;;;;;;4943502;29;11530;-86
2022/11/27 07:32:04;;;;;;;;;9.50;6.50;;;;;;;;4924670;29;11683;-82
2022/11/27 07:34:34;;;;;;;;;6.75;6.25;;;;;;;;4938163;29;11509;-77
2022/11/27 07:37:02;;;;;;;;;11.00;10.00;;;;;;;;4935760;29;12164;-78
2022/11/27 07:39:30;;;;;;;;;8.75;7.00;;;;;;;;4932874;29;11654;-77
2022/11/27 07:41:57;;;;;;;;;5.25;5.25;;;;;;;;4942987;29;11487;-78
2022/11/27 07:44:27;;;;;;;;;7.50;7.00;;;;;;;;4939605;29;11273;-80
2022/11/27 07:46:55;;;;;;;;;7.00;7.00;;;;;;;;4938039;29;11499;-80
2022/11/27 07:49:24;;;;;;;;;11.00;7.00;;;;;;;;4937298;29;11519;-79
2022/11/27 07:51:52;;;;;;;;;8.25;8.25;;;;;;;;4936416;29;11228;-76
2022/11/27 07:54:24;;;;;;;;;8.00;7.00;;;;;;;;4928027;29;11522;-75
2022/11/27 07:56:52;;;;;;;;;7.75;7.75;;;;;;;;4925608;29;12279;-77
2022/11/27 07:59:20;;;;;;;;;6.25;6.25;;;;;;;;4924688;29;11612;-75
2022/11/27 08:01:48;;;;;;;;;9.00;7.00;;;;;;;;4926126;29;11621;-77
2022/11/27 08:04:16;;;;;;;;;7.50;7.50;;;;;;;;4922800;29;11500;-76
2022/11/27 08:06:45;;;;;;;;;8.50;7.00;;;;;;;;4924724;29;11516;-76
2022/11/27 08:09:12;;;;;;;;;7.25;7.25;;;;;;;;4922633;29;12223;-77
2022/11/27 08:11:40;;;;;;;;;8.00;8.00;;;;;;;;4924063;29;11521;-76
2022/11/27 08:14:09;;;;;;;;;4.00;4.00;;;;;;;;4926634;29;11564;-77
2022/11/27 08:16:36;;;;;;;;;8.00;7.25;;;;;;;;4924579;29;11537;-76
2022/11/27 08:19:04;;;;;;;;;8.25;6.25;;;;;;;;4926626;29;11558;-75
2022/11/27 08:21:33;;;;;;;;;6.00;6.00;;;;;;;;4926853;28;11506;-76
2022/11/27 08:24:02;;;;;;;;;8.50;6.00;;;;;;;;4923750;28;11220;-77
2022/11/27 08:26:30;;;;;;;;;6.00;6.00;;;;;;;;4923193;29;11493;-77
2022/11/27 08:28:58;;;;;;;;;7.50;6.00;;;;;;;;4921819;29;11498;-77
2022/11/27 08:31:26;;;;;;;;;6.50;6.50;;;;;;;;4925637;29;11532;-77
2022/11/27 08:33:53;;;;;;;;;7.00;7.00;;;;;;;;4923178;29;11332;-77
2022/11/27 08:36:21;;;;;;;;;9.25;8.25;;;;;;;;4922855;29;11518;-75
2022/11/27 08:38:49;;;;;;;;;10.00;10.00;;;;;;;;4925458;29;11542;-75
2022/11/27 08:41:18;;;;;;;;;7.00;7.00;;;;;;;;4924167;29;11267;-74
2022/11/27 08:43:45;;;;;;;;;8.75;7.00;;;;;;;;4926168;28;11254;-75
2022/11/27 08:46:13;;;;;;;;;10.00;8.00;;;;;;;;4927533;29;11129;-75
2022/11/27 08:48:42;;;;;;;;;7.50;7.50;;;;;;;;4921767;29;11554;-75
2022/11/27 08:51:14;;;;;;;;;12.25;10.50;;;;;;;;4924371;29;11257;-75
2022/11/27 08:53:44;;;;;;;;;7.25;7.00;;;;;;;;4925199;29;11329;-74
2022/11/27 08:56:16;;;;;;;;;8.00;8.00;;;;;;;;4922802;28;11169;-76
2022/11/27 08:58:45;;;;;;;;;7.50;7.50;;;;;;;;4924019;29;11296;-75
2022/11/27 09:01:16;;;;;;;;;7.00;7.00;;;;;;;;4924367;29;11511;-75
2022/11/27 09:03:43;;;;;;;;;6.00;6.00;;;;;;;;4926403;29;11278;-76
2022/11/27 09:06:12;;;;;;;;;7.00;7.00;;;;;;;;4925431;29;11197;-75
2022/11/27 09:08:40;;;;;;;;;9.25;9.00;;;;;;;;4924092;29;11121;-75
2022/11/27 09:11:08;;;;;;;;;7.00;7.00;;;;;;;;4920250;29;11299;-75
2022/11/27 09:13:36;;;;;;;;;7.50;7.00;;;;;;;;4925452;29;11964;-75
2022/11/27 09:16:07;;;;;;;;;13.75;9.00;;;;;;;;4924017;29;11532;-75
2022/11/27 09:18:35;;;;;;;;;7.25;7.25;;;;;;;;4924628;29;11564;-76
2022/11/27 09:21:04;;;;;;;;;10.75;8.25;;;;;;;;4926017;29;11161;-75
2022/11/27 09:23:32;;;;;;;;;13.00;10.25;;;;;;;;4923982;29;11518;-75
2022/11/27 09:26:00;;;;;;;;;5.00;5.00;;;;;;;;4924735;29;11524;-75
2022/11/27 09:28:27;;;;;;;;;7.75;7.75;;;;;;;;4924876;29;11274;-76
2022/11/27 09:30:55;;;;;;;;;13.00;9.00;;;;;;;;4923089;29;11163;-74
2022/11/27 09:33:25;;;;;;;;;7.50;6.75;;;;;;;;4924876;29;11125;-74
2022/11/27 09:35:53;;;;;;;;;8.00;7.75;;;;;;;;4920854;29;11275;-75
2022/11/27 09:38:22;;;;;;;;;7.25;7.25;;;;;;;;4924578;29;11229;-74
2022/11/27 09:40:52;;;;;;;;;8.00;7.25;;;;;;;;4925315;29;11302;-74
2022/11/27 09:43:22;;;;;;;;;12.25;8.00;;;;;;;;4924465;29;11154;-74
2022/11/27 09:45:53;;;;;;;;;7.75;7.75;;;;;;;;4923408;29;11077;-73
2022/11/27 09:48:26;;;;;;;;;7.50;7.50;;;;;;;;4921205;29;11134;-74
2022/11/27 09:50:54;;;;;;;;;13.75;7.50;;;;;;;;4924443;29;11009;-74
2022/11/27 09:53:26;;;;;;;;;7.50;7.50;;;;;;;;4925045;29;11236;-74
2022/11/27 09:55:55;;;;;;;;;8.00;8.00;;;;;;;;4925304;29;11145;-75
2022/11/27 09:58:35;;;;;;;;;6.75;6.75;;;;;;;;4919844;29;11099;-74
2022/11/27 10:01:10;;;;;;;;;6.00;6.00;;;;;;;;4924303;29;11175;-74
2022/11/27 10:03:41;;;;;;;;;6.00;6.00;;;;;;;;4922732;29;11149;-76
2022/11/27 10:06:22;;;;;;;;;3.50;3.50;;;;;;;;4922728;29;11017;-75
2022/11/27 10:08:58;;;;;;;;;9.75;8.00;;;;;;;;4922752;29;11187;-75
2022/11/27 10:11:31;;;;;;;;;7.75;6.50;;;;;;;;4924504;29;11212;-76
2022/11/27 10:14:14;;;;;;;;;5.00;5.00;;;;;;;;4921951;29;11131;-74
2022/11/27 10:16:47;;;;;;;;;3.75;2.75;;;;;;;;4922916;29;11209;-75
2022/11/27 10:19:26;;;;;;;;;6.50;6.00;;;;;;;;4921878;29;11137;-75
2022/11/27 10:21:57;;;;;;;;;5.00;5.00;;;;;;;;4923220;29;10980;-75
2022/11/27 10:24:35;;;;;;;;;6.00;6.00;;;;;;;;4920621;29;11142;-76
2022/11/27 10:27:16;;;;;;;;;8.00;6.00;;;;;;;;4922713;29;11045;-76
2022/11/27 10:29:51;;;;;;;;;2.50;2.50;;;;;;;;4922521;29;10958;-75
2022/11/27 10:32:20;;;;;;;;;6.25;5.00;;;;;;;;4919168;29;11028;-76
2022/11/27 10:34:53;;;;;;;;;4.00;4.00;;;;;;;;4923110;29;11525;-77
2022/11/27 10:37:27;;;;;;;;;3.75;3.75;;;;;;;;4923684;29;10998;-75
2022/11/27 10:39:58;;;;;;;;;5.25;5.25;;;;;;;;4923999;29;10781;-77
2022/11/27 10:42:32;;;;;;;;;5.25;3.75;;;;;;;;4924603;29;10862;-75
2022/11/27 10:45:04;;;;;;;;;8.50;7.00;;;;;;;;4922881;29;10817;-75
2022/11/27 10:47:32;;;;;;;;;7.25;7.25;;;;;;;;4921946;29;10771;-76
2022/11/27 10:50:01;;;;;;;;;7.00;7.00;;;;;;;;4924020;29;10903;-75
2022/11/27 10:52:28;;;;;;;;;6.00;6.00;;;;;;;;4920582;29;11721;-75
2022/11/27 10:54:59;;;;;;;;;6.00;6.00;;;;;;;;4922515;29;10971;-76
2022/11/27 10:57:42;;;;;;;;;6.00;6.00;;;;;;;;4921627;29;10705;-76
2022/11/27 11:00:14;;;;;;;;;7.25;4.25;;;;;;;;4921020;29;11617;-76
2022/11/27 11:02:42;;;;;;;;;8.00;6.00;;;;;;;;4923030;29;10933;-77
2022/11/27 11:05:22;;;;;;;;;8.75;7.00;;;;;;;;4924010;29;10855;-78
2022/11/27 11:07:58;;;;;;;;;5.25;3.75;;;;;;;;4925908;29;10878;-78
2022/11/27 11:10:30;;;;;;;;;7.00;5.25;;;;;;;;4927574;29;11440;-76
2022/11/27 11:13:22;;;;;;;;;5.25;5.25;;;;;;;;4924069;29;10640;-77
2022/11/27 11:15:54;;;;;;;;;4.25;4.25;;;;;;;;4918128;28;10680;-78
2022/11/27 11:18:23;;;;;;;;;6.75;6.75;;;;;;;;4924876;29;10829;-77
2022/11/27 11:20:54;;;;;;;;;4.25;4.25;;;;;;;;4926158;29;10723;-77
2022/11/27 11:23:29;;;;;;;;;4.00;4.00;;;;;;;;4921736;29;10810;-78
2022/11/27 11:25:59;;;;;;;;;6.00;6.00;;;;;;;;4925596;29;10951;-78
2022/11/27 11:28:27;;;;;;;;;6.75;6.75;;;;;;;;4924254;29;10884;-77
2022/11/27 11:30:58;;;;;;;;;9.50;8.00;;;;;;;;4923660;29;10829;-77
2022/11/27 11:33:27;;;;;;;;;2.50;1.50;;;;;;;;4925962;29;11572;-75
2022/11/27 11:36:02;;;;;;;;;9.50;9.50;;;;;;;;4924187;29;10841;-75
2022/11/27 11:38:31;;;;;;;;;7.25;7.25;;;;;;;;4927299;29;10826;-75
2022/11/27 11:41:02;;;;;;;;;4.00;4.00;;;;;;;;4924965;29;11018;-75
2022/11/27 11:43:33;;;;;;;;;10.00;8.75;;;;;;;;4926694;29;10887;-79
2022/11/27 11:46:14;;;;;;;;;8.50;7.00;;;;;;;;4922914;29;11424;-78
2022/11/27 11:48:52;;;;;;;;;7.50;7.50;;;;;;;;4924516;29;10918;-76
2022/11/27 11:51:25;;;;;;;;;7.00;7.00;;;;;;;;4926380;28;10945;-78
2022/11/27 11:54:02;;;;;;;;;9.25;9.00;;;;;;;;4928204;29;11062;-78
2022/11/27 11:56:33;;;;;;;;;7.00;4.75;;;;;;;;4927068;28;10953;-76
2022/11/27 11:59:02;;;;;;;;;9.00;8.00;;;;;;;;4923131;29;10915;-76
2022/11/27 12:02:00;;;;;;;;;6.75;5.25;;;;;;;;4922034;29;10905;-76
2022/11/27 12:05:02;;;;;;;;;9.00;8.00;;;;;;;;4923684;29;10828;-79
2022/11/27 12:07:45;;;;;;;;;7.75;7.75;;;;;;;;4925513;29;10831;-75
2022/11/27 12:10:17;;;;;;;;;8.50;6.75;;;;;;;;4924966;29;10804;-77
2022/11/27 12:12:52;;;;;;;;;5.75;5.75;;;;;;;;4925213;29;10959;-76
2022/11/27 12:15:26;;;;;;;;;7.75;4.75;;;;;;;;4926281;29;10901;-75
2022/11/27 12:17:59;;;;;;;;;4.25;3.50;;;;;;;;4923975;29;10576;-73
2022/11/27 12:20:36;;;;;;;;;6.75;6.75;;;;;;;;4922142;29;10569;-73
2022/11/27 12:23:40;;;;;;;;;6.00;6.00;;;;;;;;4925392;29;11508;-71
2022/11/27 12:26:15;;;;;;;;;8.25;7.00;;;;;;;;4922315;29;10851;-72
2022/11/27 12:29:04;;;;;;;;;6.00;6.00;;;;;;;;4924675;29;11540;-73
2022/11/27 12:31:45;;;;;;;;;8.00;8.00;;;;;;;;4922963;29;10641;-74
2022/11/27 12:34:18;;;;;;;;;9.50;7.00;;;;;;;;4920516;29;11558;-74
2022/11/27 12:36:59;;;;;;;;;9.50;8.75;;;;;;;;4925139;28;10756;-73
2022/11/27 12:39:31;;;;;;;;;6.50;6.50;;;;;;;;4922357;29;10881;-73
2022/11/27 12:42:11;;;;;;;;;9.75;8.00;;;;;;;;4923316;29;10586;-74
2022/11/27 12:44:51;;;;;;;;;8.50;5.00;;;;;;;;4923589;29;10736;-76
2022/11/27 12:47:23;;;;;;;;;12.00;10.00;;;;;;;;4926041;29;10740;-75
2022/11/27 12:49:54;;;;;;;;;10.75;10.75;;;;;;;;4921628;29;10858;-72
2022/11/27 12:52:28;;;;;;;;;10.75;9.00;;;;;;;;4924249;29;10863;-75
2022/11/27 12:55:01;;;;;;;;;5.50;5.50;;;;;;;;4923669;29;10927;-74
2022/11/27 12:57:36;;;;;;;;;4.25;4.25;;;;;;;;4926112;29;10736;-74
2022/11/27 13:00:06;;;;;;;;;3.00;3.00;;;;;;;;4910238;29;10691;-73
2022/11/27 13:02:38;;;;;;;;;7.75;7.75;;;;;;;;4925461;29;10846;-73
2022/11/27 13:05:08;;;;;;;;;12.75;9.25;;;;;;;;4925217;29;10852;-74
2022/11/27 13:07:41;;;;;;;;;8.25;8.25;;;;;;;;4926823;29;10768;-73
2022/11/27 13:10:20;;;;;;;;;7.00;7.00;;;;;;;;4925360;29;10686;-73
2022/11/27 13:12:54;;;;;;;;;7.75;7.75;;;;;;;;4926191;29;10619;-74
2022/11/27 13:15:25;;;;;;;;;7.00;7.00;;;;;;;;4924837;29;10597;-74
2022/11/27 13:17:58;;;;;;;;;9.00;8.00;;;;;;;;4924930;29;10572;-74
2022/11/27 13:20:32;;;;;;;;;6.00;5.00;;;;;;;;4924737;29;10604;-74
2022/11/27 13:23:00;;;;;;;;;3.25;3.25;;;;;;;;4923597;29;10692;-74
2022/11/27 13:25:30;;;;;;;;;8.00;8.00;;;;;;;;4925669;29;10566;-74
2022/11/27 13:27:59;;;;;;;;;7.25;4.75;;;;;;;;4921518;29;10650;-73
2022/11/27 13:30:30;;;;;;;;;5.00;5.00;;;;;;;;4925706;29;10603;-74
2022/11/27 13:33:00;;;;;;;;;7.25;7.25;;;;;;;;4922780;29;10649;-73
2022/11/27 13:35:31;;;;;;;;;6.00;6.00;;;;;;;;4926812;29;10735;-74
2022/11/27 13:38:04;;;;;;;;;7.00;7.00;;;;;;;;4924407;29;10586;-74
2022/11/27 13:40:38;;;;;;;;;9.25;9.00;;;;;;;;4926384;29;10665;-73
2022/11/27 13:43:15;;;;;;;;;8.25;7.25;;;;;;;;4926053;29;11573;-74
2022/11/27 13:45:43;;;;;;;;;9.25;9.00;;;;;;;;4923842;29;10971;-74
2022/11/27 13:48:27;;;;;;;;;11.75;9.25;;;;;;;;4924617;29;10671;-74
2022/11/27 13:50:55;;;;;;;;;10.50;8.50;;;;;;;;4925130;29;10559;-74
2022/11/27 13:53:32;;;;;;;;;9.00;7.00;;;;;;;;4923867;29;10707;-74
2022/11/27 13:56:01;;;;;;;;;7.00;5.50;;;;;;;;4926108;29;10628;-74
2022/11/27 13:58:30;;;;;;;;;6.75;6.75;;;;;;;;4924999;29;10781;-73
2022/11/27 14:00:59;;;;;;;;;7.75;7.75;;;;;;;;4925580;29;10860;-74
2022/11/27 14:03:28;;;;;;;;;7.00;4.25;;;;;;;;4922693;29;10727;-74
2022/11/27 14:05:59;;;;;;;;;9.50;6.50;;;;;;;;4923445;29;10876;-74
2022/11/27 14:08:28;;;;;;;;;6.50;6.50;;;;;;;;4924764;29;11436;-74
2022/11/27 14:11:01;;;;;;;;;6.50;6.50;;;;;;;;4924672;29;11505;-73
2022/11/27 14:13:38;;;;;;;;;7.00;7.00;;;;;;;;4923465;29;10764;-74
2022/11/27 14:16:18;;;;;;;;;5.00;5.00;;;;;;;;4925365;29;10628;-73
2022/11/27 14:18:50;;;;;;;;;6.00;6.00;;;;;;;;4923369;29;10751;-73
2022/11/27 14:21:25;;;;;;;;;7.75;5.00;;;;;;;;4925908;29;10734;-74
2022/11/27 14:23:54;;;;;;;;;7.00;7.00;;;;;;;;4925474;29;10668;-73
2022/11/27 14:26:24;;;;;;;;;6.50;6.00;;;;;;;;4926156;29;10694;-73
2022/11/27 14:28:54;;;;;;;;;4.50;4.50;;;;;;;;4923217;29;10572;-73
2022/11/27 14:31:26;;;;;;;;;7.00;4.25;;;;;;;;4924892;29;10771;-73
2022/11/27 14:33:53;;;;;;;;;10.50;10.50;;;;;;;;4924471;29;11356;-73
2022/11/27 14:36:24;;;;;;;;;9.50;7.50;;;;;;;;4925330;28;10685;-73
2022/11/27 14:38:52;;;;;;;;;8.25;7.50;;;;;;;;4923806;29;10628;-73
2022/11/27 14:41:23;;;;;;;;;7.00;7.00;;;;;;;;4929014;29;10539;-74
2022/11/27 14:44:00;;;;;;;;;8.00;8.00;;;;;;;;4927159;29;10571;-72
2022/11/27 14:46:28;;;;;;;;;3.00;3.00;;;;;;;;4928960;29;10680;-75
2022/11/27 14:48:57;;;;;;;;;8.00;4.00;;;;;;;;4926231;29;10670;-75
2022/11/27 14:51:27;;;;;;;;;7.00;7.00;;;;;;;;4927706;29;10644;-74
2022/11/27 14:53:57;;;;;;;;;8.50;8.50;;;;;;;;4924783;29;10520;-75
2022/11/27 14:56:33;;;;;;;;;8.00;8.00;;;;;;;;4921304;29;10567;-76
2022/11/27 14:59:02;;;;;;;;;7.50;7.50;;;;;;;;4919002;29;10638;-73
2022/11/27 15:01:30;;;;;;;;;8.00;8.00;;;;;;;;4926755;29;10583;-73
2022/11/27 15:03:58;;;;;;;;;8.25;7.50;;;;;;;;4926150;29;10765;-72
2022/11/27 15:06:28;;;;;;;;;5.00;5.00;;;;;;;;4925745;29;10766;-73
2022/11/27 15:08:56;;;;;;;;;8.75;7.00;;;;;;;;4927290;29;10596;-71
2022/11/27 15:11:26;;;;;;;;;8.25;8.00;;;;;;;;4925378;29;10671;-74
2022/11/27 15:13:56;;;;;;;;;10.50;9.25;;;;;;;;4927901;29;10569;-71